sensor_id;sensor_type;location;lat;lon;timestamp;P1;durP1;ratioP1;P2;durP2;ratioP2
22786;SDS011;63134;52.020;4.714;2022-09-17T00:00:23;16.23;;;2.78;;
22786;SDS011;63134;52.020;4.714;2022-09-17T00:03:09;18.65;;;2.90;;
22786;SDS011;63134;52.020;4.714;2022-09-17T00:05:58;13.52;;;2.58;;
22786;SDS011;63134;52.020;4.714;2022-09-17T00:08:45;14.75;;;2.65;;
22786;SDS011;63134;52.020;4.714;2022-09-17T00:11:31;16.40;;;2.35;;
22786;SDS011;63134;52.020;4.714;2022-09-17T00:14:18;8.90;;;2.40;;
22786;SDS011;63134;52.020;4.714;2022-09-17T00:17:06;12.55;;;2.65;;
22786;SDS011;63134;52.020;4.714;2022-09-17T00:19:54;13.23;;;2.58;;
22786;SDS011;63134;52.020;4.714;2022-09-17T00:22:40;13.57;;;2.38;;
22786;SDS011;63134;52.020;4.714;2022-09-17T00:25:25;15.52;;;2.90;;
22786;SDS011;63134;52.020;4.714;2022-09-17T00:28:11;9.63;;;1.75;;
22786;SDS011;63134;52.020;4.714;2022-09-17T00:30:58;16.95;;;2.70;;
22786;SDS011;63134;52.020;4.714;2022-09-17T00:33:44;10.30;;;2.22;;
22786;SDS011;63134;52.020;4.714;2022-09-17T00:36:29;13.57;;;2.45;;
22786;SDS011;63134;52.020;4.714;2022-09-17T00:39:17;10.20;;;2.20;;
22786;SDS011;63134;52.020;4.714;2022-09-17T00:42:02;15.32;;;2.53;;
22786;SDS011;63134;52.020;4.714;2022-09-17T00:44:54;26.70;;;3.50;;
22786;SDS011;63134;52.020;4.714;2022-09-17T00:47:42;18.90;;;2.80;;
22786;SDS011;63134;52.020;4.714;2022-09-17T00:50:46;17.50;;;2.53;;
22786;SDS011;63134;52.020;4.714;2022-09-17T00:53:31;15.18;;;2.28;;
22786;SDS011;63134;52.020;4.714;2022-09-17T00:56:27;13.27;;;2.40;;
22786;SDS011;63134;52.020;4.714;2022-09-17T00:59:17;7.63;;;1.80;;
22786;SDS011;63134;52.020;4.714;2022-09-17T01:02:06;6.88;;;1.52;;
22786;SDS011;63134;52.020;4.714;2022-09-17T01:04:52;9.18;;;2.28;;
22786;SDS011;63134;52.020;4.714;2022-09-17T01:20:21;15.75;;;3.08;;
22786;SDS011;63134;52.020;4.714;2022-09-17T01:26:39;12.40;;;2.25;;
22786;SDS011;63134;52.020;4.714;2022-09-17T01:29:51;16.80;;;2.50;;
22786;SDS011;63134;52.020;4.714;2022-09-17T01:32:59;13.75;;;2.22;;
22786;SDS011;63134;52.020;4.714;2022-09-17T01:36:21;7.03;;;2.00;;
22786;SDS011;63134;52.020;4.714;2022-09-17T01:39:20;18.58;;;3.10;;
22786;SDS011;63134;52.020;4.714;2022-09-17T01:42:19;17.15;;;2.67;;
22786;SDS011;63134;52.020;4.714;2022-09-17T01:48:20;14.65;;;2.78;;
22786;SDS011;63134;52.020;4.714;2022-09-17T01:51:15;17.77;;;2.97;;
22786;SDS011;63134;52.020;4.714;2022-09-17T01:54:06;16.93;;;2.50;;
22786;SDS011;63134;52.020;4.714;2022-09-17T01:57:05;17.10;;;3.60;;
22786;SDS011;63134;52.020;4.714;2022-09-17T02:11:32;25.35;;;3.08;;
22786;SDS011;63134;52.020;4.714;2022-09-17T02:14:22;25.23;;;3.35;;
22786;SDS011;63134;52.020;4.714;2022-09-17T02:17:29;15.40;;;2.78;;
22786;SDS011;63134;52.020;4.714;2022-09-17T02:20:28;22.40;;;2.95;;
22786;SDS011;63134;52.020;4.714;2022-09-17T02:23:26;21.25;;;3.25;;
22786;SDS011;63134;52.020;4.714;2022-09-17T02:26:21;22.92;;;3.03;;
22786;SDS011;63134;52.020;4.714;2022-09-17T02:29:12;17.00;;;3.03;;
22786;SDS011;63134;52.020;4.714;2022-09-17T02:32:07;21.35;;;2.90;;
22786;SDS011;63134;52.020;4.714;2022-09-17T02:34:54;19.33;;;3.60;;
22786;SDS011;63134;52.020;4.714;2022-09-17T02:37:40;20.88;;;3.00;;
22786;SDS011;63134;52.020;4.714;2022-09-17T02:40:28;31.58;;;3.35;;
22786;SDS011;63134;52.020;4.714;2022-09-17T02:43:27;15.45;;;2.88;;
22786;SDS011;63134;52.020;4.714;2022-09-17T02:49:55;18.70;;;2.72;;
22786;SDS011;63134;52.020;4.714;2022-09-17T02:53:05;12.60;;;2.47;;
22786;SDS011;63134;52.020;4.714;2022-09-17T02:59:21;20.23;;;2.67;;
22786;SDS011;63134;52.020;4.714;2022-09-17T03:02:29;18.52;;;2.90;;
22786;SDS011;63134;52.020;4.714;2022-09-17T03:05:20;13.98;;;2.95;;
22786;SDS011;63134;52.020;4.714;2022-09-17T03:08:07;18.50;;;2.80;;
22786;SDS011;63134;52.020;4.714;2022-09-17T03:10:56;15.75;;;3.20;;
22786;SDS011;63134;52.020;4.714;2022-09-17T03:13:42;14.70;;;2.20;;
22786;SDS011;63134;52.020;4.714;2022-09-17T03:16:27;15.50;;;2.47;;
22786;SDS011;63134;52.020;4.714;2022-09-17T03:19:13;16.13;;;2.58;;
22786;SDS011;63134;52.020;4.714;2022-09-17T03:22:01;20.35;;;2.58;;
22786;SDS011;63134;52.020;4.714;2022-09-17T03:24:46;20.77;;;3.13;;
22786;SDS011;63134;52.020;4.714;2022-09-17T03:27:32;21.10;;;3.33;;
22786;SDS011;63134;52.020;4.714;2022-09-17T03:30:17;15.00;;;2.95;;
22786;SDS011;63134;52.020;4.714;2022-09-17T03:33:03;16.40;;;2.95;;
22786;SDS011;63134;52.020;4.714;2022-09-17T03:35:49;11.73;;;2.40;;
22786;SDS011;63134;52.020;4.714;2022-09-17T03:38:34;20.40;;;2.70;;
22786;SDS011;63134;52.020;4.714;2022-09-17T03:41:22;17.15;;;2.92;;
22786;SDS011;63134;52.020;4.714;2022-09-17T03:44:08;16.95;;;2.38;;
22786;SDS011;63134;52.020;4.714;2022-09-17T03:46:56;16.38;;;2.60;;
22786;SDS011;63134;52.020;4.714;2022-09-17T03:49:42;14.02;;;3.03;;
22786;SDS011;63134;52.020;4.714;2022-09-17T03:52:27;13.48;;;2.90;;
22786;SDS011;63134;52.020;4.714;2022-09-17T03:55:12;19.10;;;2.65;;
22786;SDS011;63134;52.020;4.714;2022-09-17T03:58:01;17.90;;;2.80;;
22786;SDS011;63134;52.020;4.714;2022-09-17T04:00:49;17.60;;;2.35;;
22786;SDS011;63134;52.020;4.714;2022-09-17T04:03:39;24.95;;;3.05;;
22786;SDS011;63134;52.020;4.714;2022-09-17T04:06:25;16.65;;;2.92;;
22786;SDS011;63134;52.020;4.714;2022-09-17T04:09:10;20.83;;;2.88;;
22786;SDS011;63134;52.020;4.714;2022-09-17T04:11:56;13.43;;;3.25;;
22786;SDS011;63134;52.020;4.714;2022-09-17T04:14:42;18.02;;;2.85;;
22786;SDS011;63134;52.020;4.714;2022-09-17T04:17:27;13.88;;;2.53;;
22786;SDS011;63134;52.020;4.714;2022-09-17T04:20:13;10.93;;;2.53;;
22786;SDS011;63134;52.020;4.714;2022-09-17T04:22:58;14.25;;;2.70;;
22786;SDS011;63134;52.020;4.714;2022-09-17T04:25:43;11.43;;;2.20;;
22786;SDS011;63134;52.020;4.714;2022-09-17T04:28:29;13.02;;;2.58;;
22786;SDS011;63134;52.020;4.714;2022-09-17T04:31:15;19.73;;;2.03;;
22786;SDS011;63134;52.020;4.714;2022-09-17T04:34:00;13.18;;;2.42;;
22786;SDS011;63134;52.020;4.714;2022-09-17T04:36:45;14.55;;;2.17;;
22786;SDS011;63134;52.020;4.714;2022-09-17T04:39:31;19.08;;;2.60;;
22786;SDS011;63134;52.020;4.714;2022-09-17T04:42:19;22.05;;;2.72;;
22786;SDS011;63134;52.020;4.714;2022-09-17T04:45:05;10.65;;;2.25;;
22786;SDS011;63134;52.020;4.714;2022-09-17T04:47:51;12.20;;;2.60;;
22786;SDS011;63134;52.020;4.714;2022-09-17T04:50:36;13.68;;;2.42;;
22786;SDS011;63134;52.020;4.714;2022-09-17T04:53:21;10.40;;;2.45;;
22786;SDS011;63134;52.020;4.714;2022-09-17T04:56:07;10.77;;;1.98;;
22786;SDS011;63134;52.020;4.714;2022-09-17T04:58:53;8.48;;;2.55;;
22786;SDS011;63134;52.020;4.714;2022-09-17T05:01:41;7.13;;;1.40;;
22786;SDS011;63134;52.020;4.714;2022-09-17T05:04:27;7.75;;;1.98;;
22786;SDS011;63134;52.020;4.714;2022-09-17T05:07:12;8.00;;;1.90;;
22786;SDS011;63134;52.020;4.714;2022-09-17T05:09:58;7.43;;;1.50;;
22786;SDS011;63134;52.020;4.714;2022-09-17T05:12:53;5.68;;;1.60;;
22786;SDS011;63134;52.020;4.714;2022-09-17T05:15:40;8.38;;;1.80;;
22786;SDS011;63134;52.020;4.714;2022-09-17T05:18:26;8.52;;;1.90;;
22786;SDS011;63134;52.020;4.714;2022-09-17T05:21:11;11.48;;;2.17;;
22786;SDS011;63134;52.020;4.714;2022-09-17T05:23:57;6.22;;;1.92;;
22786;SDS011;63134;52.020;4.714;2022-09-17T05:26:42;11.10;;;1.90;;
22786;SDS011;63134;52.020;4.714;2022-09-17T05:29:28;12.48;;;1.70;;
22786;SDS011;63134;52.020;4.714;2022-09-17T05:32:13;8.15;;;1.50;;
22786;SDS011;63134;52.020;4.714;2022-09-17T05:34:59;9.70;;;1.65;;
22786;SDS011;63134;52.020;4.714;2022-09-17T05:37:49;10.30;;;1.83;;
22786;SDS011;63134;52.020;4.714;2022-09-17T05:40:35;11.38;;;1.95;;
22786;SDS011;63134;52.020;4.714;2022-09-17T05:43:22;6.32;;;1.70;;
22786;SDS011;63134;52.020;4.714;2022-09-17T05:46:07;11.00;;;1.83;;
22786;SDS011;63134;52.020;4.714;2022-09-17T05:48:56;12.02;;;1.70;;
22786;SDS011;63134;52.020;4.714;2022-09-17T05:51:41;10.75;;;2.00;;
22786;SDS011;63134;52.020;4.714;2022-09-17T05:54:27;12.52;;;1.95;;
22786;SDS011;63134;52.020;4.714;2022-09-17T05:57:13;11.18;;;1.95;;
22786;SDS011;63134;52.020;4.714;2022-09-17T06:00:01;10.07;;;1.88;;
22786;SDS011;63134;52.020;4.714;2022-09-17T06:02:56;14.87;;;3.07;;
22786;SDS011;63134;52.020;4.714;2022-09-17T06:05:51;13.60;;;2.65;;
22786;SDS011;63134;52.020;4.714;2022-09-17T06:08:38;13.20;;;2.17;;
22786;SDS011;63134;52.020;4.714;2022-09-17T06:11:23;18.50;;;2.35;;
22786;SDS011;63134;52.020;4.714;2022-09-17T06:14:09;10.38;;;2.20;;
22786;SDS011;63134;52.020;4.714;2022-09-17T06:16:54;9.40;;;2.25;;
22786;SDS011;63134;52.020;4.714;2022-09-17T06:19:40;8.55;;;1.70;;
22786;SDS011;63134;52.020;4.714;2022-09-17T06:22:25;8.10;;;1.67;;
22786;SDS011;63134;52.020;4.714;2022-09-17T06:25:11;6.32;;;1.75;;
22786;SDS011;63134;52.020;4.714;2022-09-17T06:28:01;8.68;;;1.55;;
22786;SDS011;63134;52.020;4.714;2022-09-17T06:30:47;9.13;;;1.70;;
22786;SDS011;63134;52.020;4.714;2022-09-17T06:33:33;3.30;;;1.27;;
22786;SDS011;63134;52.020;4.714;2022-09-17T06:36:20;6.82;;;1.40;;
22786;SDS011;63134;52.020;4.714;2022-09-17T06:39:05;8.68;;;1.55;;
22786;SDS011;63134;52.020;4.714;2022-09-17T06:41:50;7.65;;;1.63;;
22786;SDS011;63134;52.020;4.714;2022-09-17T06:44:36;6.35;;;1.60;;
22786;SDS011;63134;52.020;4.714;2022-09-17T06:47:23;11.52;;;2.38;;
22786;SDS011;63134;52.020;4.714;2022-09-17T06:50:08;7.00;;;1.98;;
22786;SDS011;63134;52.020;4.714;2022-09-17T06:52:54;13.43;;;2.03;;
22786;SDS011;63134;52.020;4.714;2022-09-17T06:55:40;15.93;;;2.33;;
22786;SDS011;63134;52.020;4.714;2022-09-17T06:58:27;10.93;;;2.20;;
22786;SDS011;63134;52.020;4.714;2022-09-17T07:01:13;13.27;;;1.90;;
22786;SDS011;63134;52.020;4.714;2022-09-17T07:03:58;8.65;;;2.10;;
22786;SDS011;63134;52.020;4.714;2022-09-17T07:06:44;11.35;;;2.38;;
22786;SDS011;63134;52.020;4.714;2022-09-17T07:09:30;11.15;;;2.08;;
22786;SDS011;63134;52.020;4.714;2022-09-17T07:12:15;18.10;;;2.25;;
22786;SDS011;63134;52.020;4.714;2022-09-17T07:15:01;6.07;;;1.52;;
22786;SDS011;63134;52.020;4.714;2022-09-17T07:17:46;7.95;;;1.83;;
22786;SDS011;63134;52.020;4.714;2022-09-17T07:20:32;7.20;;;1.63;;
22786;SDS011;63134;52.020;4.714;2022-09-17T07:23:18;11.02;;;2.03;;
22786;SDS011;63134;52.020;4.714;2022-09-17T07:26:04;12.60;;;1.70;;
22786;SDS011;63134;52.020;4.714;2022-09-17T07:28:51;6.30;;;1.55;;
22786;SDS011;63134;52.020;4.714;2022-09-17T07:31:37;14.40;;;2.38;;
22786;SDS011;63134;52.020;4.714;2022-09-17T07:34:22;14.25;;;2.47;;
22786;SDS011;63134;52.020;4.714;2022-09-17T07:37:07;15.55;;;1.98;;
22786;SDS011;63134;52.020;4.714;2022-09-17T07:39:53;10.85;;;1.90;;
22786;SDS011;63134;52.020;4.714;2022-09-17T07:42:39;11.30;;;2.40;;
22786;SDS011;63134;52.020;4.714;2022-09-17T07:45:29;13.55;;;2.22;;
22786;SDS011;63134;52.020;4.714;2022-09-17T07:48:14;10.80;;;2.00;;
22786;SDS011;63134;52.020;4.714;2022-09-17T07:51:00;9.27;;;2.00;;
22786;SDS011;63134;52.020;4.714;2022-09-17T07:53:45;9.82;;;1.80;;
22786;SDS011;63134;52.020;4.714;2022-09-17T07:56:31;7.55;;;1.58;;
22786;SDS011;63134;52.020;4.714;2022-09-17T07:59:17;12.60;;;2.10;;
22786;SDS011;63134;52.020;4.714;2022-09-17T08:02:11;7.20;;;2.08;;
22786;SDS011;63134;52.020;4.714;2022-09-17T08:04:58;8.40;;;1.92;;
22786;SDS011;63134;52.020;4.714;2022-09-17T08:07:43;13.75;;;2.38;;
22786;SDS011;63134;52.020;4.714;2022-09-17T08:10:33;9.70;;;1.92;;
22786;SDS011;63134;52.020;4.714;2022-09-17T08:13:19;11.88;;;2.00;;
22786;SDS011;63134;52.020;4.714;2022-09-17T08:16:06;11.52;;;1.70;;
22786;SDS011;63134;52.020;4.714;2022-09-17T08:18:54;14.13;;;2.08;;
22786;SDS011;63134;52.020;4.714;2022-09-17T08:21:40;10.50;;;1.98;;
22786;SDS011;63134;52.020;4.714;2022-09-17T08:24:26;18.25;;;2.17;;
22786;SDS011;63134;52.020;4.714;2022-09-17T08:27:11;13.80;;;2.85;;
22786;SDS011;63134;52.020;4.714;2022-09-17T08:29:57;10.82;;;1.80;;
22786;SDS011;63134;52.020;4.714;2022-09-17T08:32:43;7.63;;;1.92;;
22786;SDS011;63134;52.020;4.714;2022-09-17T08:35:31;10.38;;;1.80;;
22786;SDS011;63134;52.020;4.714;2022-09-17T08:38:17;9.77;;;1.92;;
22786;SDS011;63134;52.020;4.714;2022-09-17T08:46:52;12.55;;;2.03;;
22786;SDS011;63134;52.020;4.714;2022-09-17T08:55:58;7.40;;;1.50;;
22786;SDS011;63134;52.020;4.714;2022-09-17T08:58:56;5.32;;;1.45;;
22786;SDS011;63134;52.020;4.714;2022-09-17T09:01:57;8.27;;;1.30;;
22786;SDS011;63134;52.020;4.714;2022-09-17T09:07:54;3.97;;;1.00;;
22786;SDS011;63134;52.020;4.714;2022-09-17T09:10:46;9.55;;;1.40;;
22786;SDS011;63134;52.020;4.714;2022-09-17T09:13:40;3.40;;;1.08;;
22786;SDS011;63134;52.020;4.714;2022-09-17T09:16:50;5.32;;;1.40;;
22786;SDS011;63134;52.020;4.714;2022-09-17T09:19:42;8.07;;;1.65;;
22786;SDS011;63134;52.020;4.714;2022-09-17T09:25:38;9.18;;;1.88;;
22786;SDS011;63134;52.020;4.714;2022-09-17T09:31:58;11.32;;;1.70;;
22786;SDS011;63134;52.020;4.714;2022-09-17T09:38:28;10.93;;;1.75;;
22786;SDS011;63134;52.020;4.714;2022-09-17T09:41:22;5.68;;;1.33;;
22786;SDS011;63134;52.020;4.714;2022-09-17T09:44:10;5.63;;;1.45;;
22786;SDS011;63134;52.020;4.714;2022-09-17T09:50:26;8.40;;;1.88;;
22786;SDS011;63134;52.020;4.714;2022-09-17T09:56:58;6.47;;;1.35;;
22786;SDS011;63134;52.020;4.714;2022-09-17T09:59:50;9.25;;;1.77;;
22786;SDS011;63134;52.020;4.714;2022-09-17T10:03:00;8.23;;;1.58;;
22786;SDS011;63134;52.020;4.714;2022-09-17T10:05:55;11.23;;;1.90;;
22786;SDS011;63134;52.020;4.714;2022-09-17T10:08:43;12.85;;;2.85;;
22786;SDS011;63134;52.020;4.714;2022-09-17T10:11:58;11.57;;;2.10;;
22786;SDS011;63134;52.020;4.714;2022-09-17T10:14:48;10.88;;;1.90;;
22786;SDS011;63134;52.020;4.714;2022-09-17T10:17:34;9.77;;;2.30;;
22786;SDS011;63134;52.020;4.714;2022-09-17T10:20:20;12.77;;;1.92;;
22786;SDS011;63134;52.020;4.714;2022-09-17T10:23:10;14.00;;;2.13;;
22786;SDS011;63134;52.020;4.714;2022-09-17T10:25:56;10.57;;;2.85;;
22786;SDS011;63134;52.020;4.714;2022-09-17T10:28:52;10.05;;;1.65;;
22786;SDS011;63134;52.020;4.714;2022-09-17T10:31:46;9.07;;;2.03;;
22786;SDS011;63134;52.020;4.714;2022-09-17T10:34:33;20.05;;;2.90;;
22786;SDS011;63134;52.020;4.714;2022-09-17T10:37:33;14.75;;;2.72;;
22786;SDS011;63134;52.020;4.714;2022-09-17T10:40:37;12.13;;;2.33;;
22786;SDS011;63134;52.020;4.714;2022-09-17T10:43:22;13.80;;;2.88;;
22786;SDS011;63134;52.020;4.714;2022-09-17T10:46:09;18.77;;;2.70;;
22786;SDS011;63134;52.020;4.714;2022-09-17T10:49:06;11.60;;;2.70;;
22786;SDS011;63134;52.020;4.714;2022-09-17T11:04:02;19.17;;;2.75;;
22786;SDS011;63134;52.020;4.714;2022-09-17T11:10:16;15.95;;;2.65;;
22786;SDS011;63134;52.020;4.714;2022-09-17T11:13:22;13.70;;;2.90;;
22786;SDS011;63134;52.020;4.714;2022-09-17T11:25:46;17.48;;;2.58;;
22786;SDS011;63134;52.020;4.714;2022-09-17T11:35:14;15.02;;;2.55;;
22786;SDS011;63134;52.020;4.714;2022-09-17T11:41:10;8.10;;;2.22;;
22786;SDS011;63134;52.020;4.714;2022-09-17T11:46:59;8.20;;;2.35;;
22786;SDS011;63134;52.020;4.714;2022-09-17T11:49:53;12.63;;;2.43;;
22786;SDS011;63134;52.020;4.714;2022-09-17T11:52:41;15.10;;;2.88;;
22786;SDS011;63134;52.020;4.714;2022-09-17T12:01:35;17.27;;;2.53;;
22786;SDS011;63134;52.020;4.714;2022-09-17T12:04:34;12.57;;;2.50;;
22786;SDS011;63134;52.020;4.714;2022-09-17T12:07:42;14.55;;;2.70;;
22786;SDS011;63134;52.020;4.714;2022-09-17T12:10:44;17.35;;;2.70;;
22786;SDS011;63134;52.020;4.714;2022-09-17T12:13:45;10.40;;;2.22;;
22786;SDS011;63134;52.020;4.714;2022-09-17T12:16:37;14.50;;;2.60;;
22786;SDS011;63134;52.020;4.714;2022-09-17T12:19:30;16.55;;;2.50;;
22786;SDS011;63134;52.020;4.714;2022-09-17T12:22:31;9.35;;;2.83;;
22786;SDS011;63134;52.020;4.714;2022-09-17T12:25:24;13.88;;;2.70;;
22786;SDS011;63134;52.020;4.714;2022-09-17T12:28:20;12.90;;;2.08;;
22786;SDS011;63134;52.020;4.714;2022-09-17T12:31:22;8.30;;;2.55;;
22786;SDS011;63134;52.020;4.714;2022-09-17T12:37:35;15.60;;;2.40;;
22786;SDS011;63134;52.020;4.714;2022-09-17T12:46:42;10.10;;;2.65;;
22786;SDS011;63134;52.020;4.714;2022-09-17T12:49:58;11.48;;;2.65;;
22786;SDS011;63134;52.020;4.714;2022-09-17T12:56:01;11.48;;;2.45;;
22786;SDS011;63134;52.020;4.714;2022-09-17T12:59:07;16.48;;;2.83;;
22786;SDS011;63134;52.020;4.714;2022-09-17T13:11:13;19.75;;;2.70;;
22786;SDS011;63134;52.020;4.714;2022-09-17T13:21:51;16.52;;;2.60;;
22786;SDS011;63134;52.020;4.714;2022-09-17T13:24:39;14.32;;;2.85;;
22786;SDS011;63134;52.020;4.714;2022-09-17T13:27:31;16.40;;;3.15;;
22786;SDS011;63134;52.020;4.714;2022-09-17T13:30:19;22.00;;;4.00;;
22786;SDS011;63134;52.020;4.714;2022-09-17T13:42:43;12.77;;;3.23;;
22786;SDS011;63134;52.020;4.714;2022-09-17T13:45:31;14.65;;;2.80;;
22786;SDS011;63134;52.020;4.714;2022-09-17T13:48:21;13.43;;;2.33;;
22786;SDS011;63134;52.020;4.714;2022-09-17T13:51:40;11.82;;;2.42;;
22786;SDS011;63134;52.020;4.714;2022-09-17T13:54:18;13.65;;;2.50;;
22786;SDS011;63134;52.020;4.714;2022-09-17T13:57:07;13.65;;;2.10;;
22786;SDS011;63134;52.020;4.714;2022-09-17T14:00:04;15.88;;;2.70;;
22786;SDS011;63134;52.020;4.714;2022-09-17T14:02:55;17.85;;;2.80;;
22786;SDS011;63134;52.020;4.714;2022-09-17T14:09:28;13.07;;;2.38;;
22786;SDS011;63134;52.020;4.714;2022-09-17T14:21:13;11.27;;;2.30;;
22786;SDS011;63134;52.020;4.714;2022-09-17T14:30:34;13.93;;;2.90;;
22786;SDS011;63134;52.020;4.714;2022-09-17T14:33:22;11.23;;;2.80;;
22786;SDS011;63134;52.020;4.714;2022-09-17T14:36:17;21.00;;;3.83;;
22786;SDS011;63134;52.020;4.714;2022-09-17T14:39:08;13.68;;;2.88;;
22786;SDS011;63134;52.020;4.714;2022-09-17T14:42:01;14.85;;;2.78;;
22786;SDS011;63134;52.020;4.714;2022-09-17T14:48:34;14.00;;;2.67;;
22786;SDS011;63134;52.020;4.714;2022-09-17T14:51:22;13.98;;;2.63;;
22786;SDS011;63134;52.020;4.714;2022-09-17T14:57:00;12.75;;;2.28;;
22786;SDS011;63134;52.020;4.714;2022-09-17T14:59:51;15.40;;;2.53;;
22786;SDS011;63134;52.020;4.714;2022-09-17T15:02:42;14.10;;;2.42;;
22786;SDS011;63134;52.020;4.714;2022-09-17T15:05:32;10.60;;;2.20;;
22786;SDS011;63134;52.020;4.714;2022-09-17T15:08:24;14.10;;;2.35;;
22786;SDS011;63134;52.020;4.714;2022-09-17T15:11:11;13.48;;;2.40;;
22786;SDS011;63134;52.020;4.714;2022-09-17T15:13:58;8.15;;;2.05;;
22786;SDS011;63134;52.020;4.714;2022-09-17T15:16:47;14.95;;;2.38;;
22786;SDS011;63134;52.020;4.714;2022-09-17T15:19:40;10.15;;;2.10;;
22786;SDS011;63134;52.020;4.714;2022-09-17T15:22:38;14.70;;;2.15;;
22786;SDS011;63134;52.020;4.714;2022-09-17T15:25:28;11.10;;;2.45;;
22786;SDS011;63134;52.020;4.714;2022-09-17T15:28:21;9.40;;;2.30;;
22786;SDS011;63134;52.020;4.714;2022-09-17T15:31:19;7.22;;;2.03;;
22786;SDS011;63134;52.020;4.714;2022-09-17T15:34:05;11.75;;;2.40;;
22786;SDS011;63134;52.020;4.714;2022-09-17T15:37:04;8.68;;;2.15;;
22786;SDS011;63134;52.020;4.714;2022-09-17T15:39:58;10.32;;;2.30;;
22786;SDS011;63134;52.020;4.714;2022-09-17T15:46:36;7.95;;;2.40;;
22786;SDS011;63134;52.020;4.714;2022-09-17T15:49:27;14.45;;;2.00;;
22786;SDS011;63134;52.020;4.714;2022-09-17T15:52:29;14.00;;;1.98;;
22786;SDS011;63134;52.020;4.714;2022-09-17T15:55:25;11.77;;;2.85;;
22786;SDS011;63134;52.020;4.714;2022-09-17T15:58:23;11.85;;;2.22;;
22786;SDS011;63134;52.020;4.714;2022-09-17T16:07:19;13.75;;;2.08;;
22786;SDS011;63134;52.020;4.714;2022-09-17T16:10:12;12.02;;;1.98;;
22786;SDS011;63134;52.020;4.714;2022-09-17T16:12:59;9.60;;;1.88;;
22786;SDS011;63134;52.020;4.714;2022-09-17T16:15:45;14.70;;;2.30;;
22786;SDS011;63134;52.020;4.714;2022-09-17T16:18:32;13.70;;;2.30;;
22786;SDS011;63134;52.020;4.714;2022-09-17T16:21:18;5.75;;;1.50;;
22786;SDS011;63134;52.020;4.714;2022-09-17T16:24:04;7.15;;;1.90;;
22786;SDS011;63134;52.020;4.714;2022-09-17T16:26:49;7.38;;;1.88;;
22786;SDS011;63134;52.020;4.714;2022-09-17T16:29:35;9.07;;;1.75;;
22786;SDS011;63134;52.020;4.714;2022-09-17T16:32:20;13.70;;;1.98;;
22786;SDS011;63134;52.020;4.714;2022-09-17T16:35:06;10.77;;;2.05;;
22786;SDS011;63134;52.020;4.714;2022-09-17T16:38:01;16.08;;;2.15;;
22786;SDS011;63134;52.020;4.714;2022-09-17T16:40:46;14.05;;;2.38;;
22786;SDS011;63134;52.020;4.714;2022-09-17T16:43:32;11.20;;;2.70;;
22786;SDS011;63134;52.020;4.714;2022-09-17T16:46:18;13.60;;;2.53;;
22786;SDS011;63134;52.020;4.714;2022-09-17T16:49:03;11.75;;;2.58;;
22786;SDS011;63134;52.020;4.714;2022-09-17T16:51:49;8.88;;;2.00;;
22786;SDS011;63134;52.020;4.714;2022-09-17T16:54:35;10.05;;;1.58;;
22786;SDS011;63134;52.020;4.714;2022-09-17T16:57:20;8.73;;;1.90;;
22786;SDS011;63134;52.020;4.714;2022-09-17T17:00:06;5.05;;;1.30;;
22786;SDS011;63134;52.020;4.714;2022-09-17T17:02:57;9.40;;;1.45;;
22786;SDS011;63134;52.020;4.714;2022-09-17T17:05:42;5.93;;;1.40;;
22786;SDS011;63134;52.020;4.714;2022-09-17T17:08:29;11.13;;;1.60;;
22786;SDS011;63134;52.020;4.714;2022-09-17T17:11:15;9.35;;;1.42;;
22786;SDS011;63134;52.020;4.714;2022-09-17T17:14:01;6.55;;;1.45;;
22786;SDS011;63134;52.020;4.714;2022-09-17T17:16:50;11.02;;;1.88;;
22786;SDS011;63134;52.020;4.714;2022-09-17T17:19:35;13.68;;;1.70;;
22786;SDS011;63134;52.020;4.714;2022-09-17T17:22:21;8.15;;;1.33;;
22786;SDS011;63134;52.020;4.714;2022-09-17T17:25:06;10.10;;;1.50;;
22786;SDS011;63134;52.020;4.714;2022-09-17T17:27:52;8.00;;;1.65;;
22786;SDS011;63134;52.020;4.714;2022-09-17T17:30:37;9.82;;;1.73;;
22786;SDS011;63134;52.020;4.714;2022-09-17T17:33:23;11.80;;;1.70;;
22786;SDS011;63134;52.020;4.714;2022-09-17T17:36:09;8.95;;;2.03;;
22786;SDS011;63134;52.020;4.714;2022-09-17T17:38:55;12.80;;;1.40;;
22786;SDS011;63134;52.020;4.714;2022-09-17T17:41:41;10.27;;;1.90;;
22786;SDS011;63134;52.020;4.714;2022-09-17T17:44:27;15.23;;;2.10;;
22786;SDS011;63134;52.020;4.714;2022-09-17T17:47:12;11.02;;;2.08;;
22786;SDS011;63134;52.020;4.714;2022-09-17T17:49:58;13.93;;;2.22;;
22786;SDS011;63134;52.020;4.714;2022-09-17T17:52:46;10.93;;;2.30;;
22786;SDS011;63134;52.020;4.714;2022-09-17T17:55:33;9.00;;;2.03;;
22786;SDS011;63134;52.020;4.714;2022-09-17T17:58:18;11.05;;;2.10;;
22786;SDS011;63134;52.020;4.714;2022-09-17T18:04:06;8.30;;;2.10;;
22786;SDS011;63134;52.020;4.714;2022-09-17T18:06:54;11.15;;;1.95;;
22786;SDS011;63134;52.020;4.714;2022-09-17T18:09:39;9.43;;;1.65;;
22786;SDS011;63134;52.020;4.714;2022-09-17T18:12:25;8.13;;;1.88;;
22786;SDS011;63134;52.020;4.714;2022-09-17T18:15:11;7.47;;;1.58;;
22786;SDS011;63134;52.020;4.714;2022-09-17T18:17:56;4.53;;;1.60;;
22786;SDS011;63134;52.020;4.714;2022-09-17T18:20:42;9.25;;;1.50;;
22786;SDS011;63134;52.020;4.714;2022-09-17T18:23:27;5.70;;;1.52;;
22786;SDS011;63134;52.020;4.714;2022-09-17T18:26:24;6.55;;;1.77;;
22786;SDS011;63134;52.020;4.714;2022-09-17T18:29:11;9.90;;;1.60;;
22786;SDS011;63134;52.020;4.714;2022-09-17T18:31:56;9.65;;;1.92;;
22786;SDS011;63134;52.020;4.714;2022-09-17T18:34:42;10.80;;;1.98;;
22786;SDS011;63134;52.020;4.714;2022-09-17T18:37:27;5.53;;;1.73;;
22786;SDS011;63134;52.020;4.714;2022-09-17T18:40:13;7.28;;;1.75;;
22786;SDS011;63134;52.020;4.714;2022-09-17T18:43:01;14.65;;;2.10;;
22786;SDS011;63134;52.020;4.714;2022-09-17T18:45:53;12.50;;;1.88;;
22786;SDS011;63134;52.020;4.714;2022-09-17T18:48:39;15.48;;;2.20;;
22786;SDS011;63134;52.020;4.714;2022-09-17T18:51:25;9.65;;;2.50;;
22786;SDS011;63134;52.020;4.714;2022-09-17T18:54:11;18.85;;;2.80;;
22786;SDS011;63134;52.020;4.714;2022-09-17T18:56:57;9.45;;;2.13;;
22786;SDS011;63134;52.020;4.714;2022-09-17T18:59:43;11.75;;;2.45;;
22786;SDS011;63134;52.020;4.714;2022-09-17T19:02:28;21.95;;;2.92;;
22786;SDS011;63134;52.020;4.714;2022-09-17T19:05:14;14.05;;;2.75;;
22786;SDS011;63134;52.020;4.714;2022-09-17T19:08:00;16.35;;;2.95;;
22786;SDS011;63134;52.020;4.714;2022-09-17T19:10:49;15.45;;;2.53;;
22786;SDS011;63134;52.020;4.714;2022-09-17T19:13:39;10.80;;;2.63;;
22786;SDS011;63134;52.020;4.714;2022-09-17T19:16:29;20.20;;;3.42;;
22786;SDS011;63134;52.020;4.714;2022-09-17T19:19:14;14.00;;;2.22;;
22786;SDS011;63134;52.020;4.714;2022-09-17T19:22:00;19.83;;;2.53;;
22786;SDS011;63134;52.020;4.714;2022-09-17T19:24:45;13.43;;;2.58;;
22786;SDS011;63134;52.020;4.714;2022-09-17T19:27:31;19.73;;;2.60;;
22786;SDS011;63134;52.020;4.714;2022-09-17T19:30:16;14.38;;;3.33;;
22786;SDS011;63134;52.020;4.714;2022-09-17T19:33:02;16.33;;;2.65;;
22786;SDS011;63134;52.020;4.714;2022-09-17T19:35:48;14.65;;;2.30;;
22786;SDS011;63134;52.020;4.714;2022-09-17T19:38:35;11.65;;;2.45;;
22786;SDS011;63134;52.020;4.714;2022-09-17T19:41:21;12.60;;;2.55;;
22786;SDS011;63134;52.020;4.714;2022-09-17T19:44:07;16.27;;;2.95;;
22786;SDS011;63134;52.020;4.714;2022-09-17T19:46:52;15.55;;;3.03;;
22786;SDS011;63134;52.020;4.714;2022-09-17T19:49:38;11.63;;;2.53;;
22786;SDS011;63134;52.020;4.714;2022-09-17T19:52:24;11.10;;;3.05;;
22786;SDS011;63134;52.020;4.714;2022-09-17T19:55:13;11.18;;;2.78;;
22786;SDS011;63134;52.020;4.714;2022-09-17T19:57:58;16.52;;;3.10;;
22786;SDS011;63134;52.020;4.714;2022-09-17T20:00:53;12.00;;;2.78;;